sensor_id;sensor_type;location;lat;lon;timestamp;P1;durP1;ratioP1;P2;durP2;ratioP2
34212;SDS011;20477;51.390;8.102;2022-09-17T00:01:25;8.70;;;5.00;;
34212;SDS011;20477;51.390;8.102;2022-09-17T00:03:54;17.02;;;5.88;;
34212;SDS011;20477;51.390;8.102;2022-09-17T00:06:33;8.00;;;5.57;;
34212;SDS011;20477;51.390;8.102;2022-09-17T00:09:02;11.38;;;4.85;;
34212;SDS011;20477;51.390;8.102;2022-09-17T00:11:32;19.25;;;5.82;;
34212;SDS011;20477;51.390;8.102;2022-09-17T00:14:01;8.35;;;4.45;;
34212;SDS011;20477;51.390;8.102;2022-09-17T00:16:30;19.33;;;5.78;;
34212;SDS011;20477;51.390;8.102;2022-09-17T00:19:00;25.60;;;6.03;;
34212;SDS011;20477;51.390;8.102;2022-09-17T00:21:29;15.48;;;5.03;;
34212;SDS011;20477;51.390;8.102;2022-09-17T00:23:58;23.38;;;5.22;;
34212;SDS011;20477;51.390;8.102;2022-09-17T00:26:27;15.18;;;4.78;;
34212;SDS011;20477;51.390;8.102;2022-09-17T00:28:55;13.30;;;4.18;;
34212;SDS011;20477;51.390;8.102;2022-09-17T00:31:22;14.13;;;4.22;;
34212;SDS011;20477;51.390;8.102;2022-09-17T00:33:53;14.13;;;4.25;;
34212;SDS011;20477;51.390;8.102;2022-09-17T00:36:20;13.93;;;3.72;;
34212;SDS011;20477;51.390;8.102;2022-09-17T00:38:54;14.68;;;4.72;;
34212;SDS011;20477;51.390;8.102;2022-09-17T00:41:24;11.95;;;3.97;;
34212;SDS011;20477;51.390;8.102;2022-09-17T00:43:54;9.25;;;3.60;;
34212;SDS011;20477;51.390;8.102;2022-09-17T00:46:33;14.32;;;4.70;;
34212;SDS011;20477;51.390;8.102;2022-09-17T00:49:09;20.65;;;5.22;;
34212;SDS011;20477;51.390;8.102;2022-09-17T00:51:48;18.77;;;4.95;;
34212;SDS011;20477;51.390;8.102;2022-09-17T00:54:25;19.85;;;5.55;;
34212;SDS011;20477;51.390;8.102;2022-09-17T00:56:53;30.90;;;6.75;;
34212;SDS011;20477;51.390;8.102;2022-09-17T00:59:20;16.70;;;5.85;;
34212;SDS011;20477;51.390;8.102;2022-09-17T01:01:54;16.30;;;4.10;;
34212;SDS011;20477;51.390;8.102;2022-09-17T01:04:23;18.67;;;5.38;;
34212;SDS011;20477;51.390;8.102;2022-09-17T01:15:25;17.98;;;6.70;;
34212;SDS011;20477;51.390;8.102;2022-09-17T01:29:17;19.13;;;6.90;;
34212;SDS011;20477;51.390;8.102;2022-09-17T01:34:57;24.13;;;7.80;;
34212;SDS011;20477;51.390;8.102;2022-09-17T01:42:49;26.85;;;10.05;;
34212;SDS011;20477;51.390;8.102;2022-09-17T01:45:24;39.13;;;11.73;;
34212;SDS011;20477;51.390;8.102;2022-09-17T01:48:15;27.70;;;11.80;;
34212;SDS011;20477;51.390;8.102;2022-09-17T01:50:52;36.72;;;12.55;;
34212;SDS011;20477;51.390;8.102;2022-09-17T01:53:24;34.35;;;12.80;;
34212;SDS011;20477;51.390;8.102;2022-09-17T01:55:55;35.10;;;13.52;;
34212;SDS011;20477;51.390;8.102;2022-09-17T01:58:25;24.38;;;12.30;;
34212;SDS011;20477;51.390;8.102;2022-09-17T02:01:05;30.58;;;13.90;;
34212;SDS011;20477;51.390;8.102;2022-09-17T02:03:40;31.52;;;14.50;;
34212;SDS011;20477;51.390;8.102;2022-09-17T02:06:17;39.30;;;15.40;;
34212;SDS011;20477;51.390;8.102;2022-09-17T02:09:03;36.37;;;14.80;;
34212;SDS011;20477;51.390;8.102;2022-09-17T02:11:45;33.00;;;16.33;;
34212;SDS011;20477;51.390;8.102;2022-09-17T02:14:19;31.63;;;15.43;;
34212;SDS011;20477;51.390;8.102;2022-09-17T02:16:49;37.03;;;17.02;;
34212;SDS011;20477;51.390;8.102;2022-09-17T02:19:23;30.60;;;14.77;;
34212;SDS011;20477;51.390;8.102;2022-09-17T02:24:44;32.83;;;14.73;;
34212;SDS011;20477;51.390;8.102;2022-09-17T02:30:29;32.35;;;14.60;;
34212;SDS011;20477;51.390;8.102;2022-09-17T02:32:57;32.60;;;12.88;;
34212;SDS011;20477;51.390;8.102;2022-09-17T02:35:24;31.05;;;13.25;;
34212;SDS011;20477;51.390;8.102;2022-09-17T02:37:52;39.13;;;12.85;;
34212;SDS011;20477;51.390;8.102;2022-09-17T02:40:22;37.72;;;11.38;;
34212;SDS011;20477;51.390;8.102;2022-09-17T02:54:41;31.85;;;11.57;;
34212;SDS011;20477;51.390;8.102;2022-09-17T02:57:27;31.35;;;11.95;;
34212;SDS011;20477;51.390;8.102;2022-09-17T03:05:27;35.28;;;13.40;;
34212;SDS011;20477;51.390;8.102;2022-09-17T03:07:55;30.88;;;14.57;;
34212;SDS011;20477;51.390;8.102;2022-09-17T03:10:24;29.13;;;13.25;;
34212;SDS011;20477;51.390;8.102;2022-09-17T03:12:55;39.05;;;15.07;;
34212;SDS011;20477;51.390;8.102;2022-09-17T03:15:22;39.67;;;16.05;;
34212;SDS011;20477;51.390;8.102;2022-09-17T03:17:49;38.65;;;15.52;;
34212;SDS011;20477;51.390;8.102;2022-09-17T03:20:18;38.35;;;15.70;;
34212;SDS011;20477;51.390;8.102;2022-09-17T03:22:49;36.55;;;16.77;;
34212;SDS011;20477;51.390;8.102;2022-09-17T03:25:17;49.47;;;18.33;;
34212;SDS011;20477;51.390;8.102;2022-09-17T03:27:43;34.63;;;16.52;;
34212;SDS011;20477;51.390;8.102;2022-09-17T03:30:10;49.03;;;16.77;;
34212;SDS011;20477;51.390;8.102;2022-09-17T03:32:38;44.45;;;17.38;;
34212;SDS011;20477;51.390;8.102;2022-09-17T03:35:05;38.38;;;17.83;;
34212;SDS011;20477;51.390;8.102;2022-09-17T03:37:32;36.33;;;15.68;;
34212;SDS011;20477;51.390;8.102;2022-09-17T03:39:59;41.50;;;16.48;;
34212;SDS011;20477;51.390;8.102;2022-09-17T03:42:26;35.63;;;17.85;;
34212;SDS011;20477;51.390;8.102;2022-09-17T03:44:52;41.25;;;17.05;;
34212;SDS011;20477;51.390;8.102;2022-09-17T03:47:19;38.53;;;16.35;;
34212;SDS011;20477;51.390;8.102;2022-09-17T03:49:46;39.00;;;16.65;;
34212;SDS011;20477;51.390;8.102;2022-09-17T03:52:13;44.92;;;18.20;;
34212;SDS011;20477;51.390;8.102;2022-09-17T03:54:40;43.45;;;15.73;;
34212;SDS011;20477;51.390;8.102;2022-09-17T03:57:07;35.05;;;14.50;;
34212;SDS011;20477;51.390;8.102;2022-09-17T03:59:34;35.78;;;14.70;;
34212;SDS011;20477;51.390;8.102;2022-09-17T04:02:01;32.33;;;13.35;;
34212;SDS011;20477;51.390;8.102;2022-09-17T04:04:28;37.90;;;12.52;;
34212;SDS011;20477;51.390;8.102;2022-09-17T04:06:55;34.25;;;11.10;;
34212;SDS011;20477;51.390;8.102;2022-09-17T04:09:24;25.88;;;10.52;;
34212;SDS011;20477;51.390;8.102;2022-09-17T04:11:52;27.40;;;11.88;;
34212;SDS011;20477;51.390;8.102;2022-09-17T04:14:19;37.45;;;13.18;;
34212;SDS011;20477;51.390;8.102;2022-09-17T04:16:48;36.97;;;13.05;;
34212;SDS011;20477;51.390;8.102;2022-09-17T04:19:15;31.02;;;12.85;;
34212;SDS011;20477;51.390;8.102;2022-09-17T04:21:42;27.13;;;12.90;;
34212;SDS011;20477;51.390;8.102;2022-09-17T04:24:11;29.25;;;11.43;;
34212;SDS011;20477;51.390;8.102;2022-09-17T04:26:44;33.43;;;11.00;;
34212;SDS011;20477;51.390;8.102;2022-09-17T04:29:10;36.47;;;12.18;;
34212;SDS011;20477;51.390;8.102;2022-09-17T04:31:37;23.35;;;10.18;;
34212;SDS011;20477;51.390;8.102;2022-09-17T04:34:05;25.20;;;8.10;;
34212;SDS011;20477;51.390;8.102;2022-09-17T04:36:32;29.25;;;9.82;;
34212;SDS011;20477;51.390;8.102;2022-09-17T04:38:59;29.45;;;10.85;;
34212;SDS011;20477;51.390;8.102;2022-09-17T04:41:26;31.60;;;9.88;;
34212;SDS011;20477;51.390;8.102;2022-09-17T04:43:53;21.33;;;7.43;;
34212;SDS011;20477;51.390;8.102;2022-09-17T04:46:20;30.50;;;9.43;;
34212;SDS011;20477;51.390;8.102;2022-09-17T04:48:47;29.42;;;9.82;;
34212;SDS011;20477;51.390;8.102;2022-09-17T04:51:14;32.95;;;10.25;;
34212;SDS011;20477;51.390;8.102;2022-09-17T04:53:41;28.75;;;9.93;;
34212;SDS011;20477;51.390;8.102;2022-09-17T04:56:08;37.85;;;10.00;;
34212;SDS011;20477;51.390;8.102;2022-09-17T04:58:38;26.73;;;9.45;;
34212;SDS011;20477;51.390;8.102;2022-09-17T05:01:05;57.25;;;11.75;;
34212;SDS011;20477;51.390;8.102;2022-09-17T05:03:32;28.25;;;9.38;;
34212;SDS011;20477;51.390;8.102;2022-09-17T05:05:59;32.90;;;9.07;;
34212;SDS011;20477;51.390;8.102;2022-09-17T05:08:26;23.35;;;9.07;;
34212;SDS011;20477;51.390;8.102;2022-09-17T05:10:53;32.95;;;8.60;;
34212;SDS011;20477;51.390;8.102;2022-09-17T05:13:20;35.30;;;9.85;;
34212;SDS011;20477;51.390;8.102;2022-09-17T05:15:47;32.25;;;8.93;;
34212;SDS011;20477;51.390;8.102;2022-09-17T05:18:14;27.33;;;8.38;;
34212;SDS011;20477;51.390;8.102;2022-09-17T05:20:43;34.42;;;8.80;;
34212;SDS011;20477;51.390;8.102;2022-09-17T05:23:10;28.70;;;7.25;;
34212;SDS011;20477;51.390;8.102;2022-09-17T05:25:37;27.23;;;7.78;;
34212;SDS011;20477;51.390;8.102;2022-09-17T05:28:04;39.20;;;9.82;;
34212;SDS011;20477;51.390;8.102;2022-09-17T05:30:31;26.98;;;6.85;;
34212;SDS011;20477;51.390;8.102;2022-09-17T05:33:02;20.58;;;6.70;;
34212;SDS011;20477;51.390;8.102;2022-09-17T05:35:31;22.57;;;5.43;;
34212;SDS011;20477;51.390;8.102;2022-09-17T05:37:59;21.67;;;6.22;;
34212;SDS011;20477;51.390;8.102;2022-09-17T05:40:27;23.88;;;5.88;;
34212;SDS011;20477;51.390;8.102;2022-09-17T05:42:58;23.50;;;5.55;;
34212;SDS011;20477;51.390;8.102;2022-09-17T05:45:28;23.92;;;6.05;;
34212;SDS011;20477;51.390;8.102;2022-09-17T05:47:57;22.60;;;6.15;;
34212;SDS011;20477;51.390;8.102;2022-09-17T05:50:26;26.80;;;5.63;;
34212;SDS011;20477;51.390;8.102;2022-09-17T05:52:54;28.98;;;6.68;;
34212;SDS011;20477;51.390;8.102;2022-09-17T05:55:21;23.42;;;6.10;;
34212;SDS011;20477;51.390;8.102;2022-09-17T05:57:49;20.30;;;5.57;;
34212;SDS011;20477;51.390;8.102;2022-09-17T06:00:17;20.85;;;5.25;;
34212;SDS011;20477;51.390;8.102;2022-09-17T06:02:44;18.98;;;5.47;;
34212;SDS011;20477;51.390;8.102;2022-09-17T06:05:12;20.73;;;5.72;;
34212;SDS011;20477;51.390;8.102;2022-09-17T06:07:39;28.05;;;6.40;;
34212;SDS011;20477;51.390;8.102;2022-09-17T06:10:06;17.52;;;4.68;;
34212;SDS011;20477;51.390;8.102;2022-09-17T06:12:33;26.27;;;5.32;;
34212;SDS011;20477;51.390;8.102;2022-09-17T06:15:02;28.15;;;4.95;;
34212;SDS011;20477;51.390;8.102;2022-09-17T06:17:33;21.23;;;5.28;;
34212;SDS011;20477;51.390;8.102;2022-09-17T06:20:01;21.10;;;4.85;;
34212;SDS011;20477;51.390;8.102;2022-09-17T06:22:29;17.30;;;4.43;;
34212;SDS011;20477;51.390;8.102;2022-09-17T06:24:57;27.10;;;5.15;;
34212;SDS011;20477;51.390;8.102;2022-09-17T06:27:33;12.73;;;4.60;;
34212;SDS011;20477;51.390;8.102;2022-09-17T06:30:01;13.98;;;4.45;;
34212;SDS011;20477;51.390;8.102;2022-09-17T06:32:28;15.55;;;4.88;;
34212;SDS011;20477;51.390;8.102;2022-09-17T06:34:58;19.70;;;4.50;;
34212;SDS011;20477;51.390;8.102;2022-09-17T06:37:28;13.27;;;3.63;;
34212;SDS011;20477;51.390;8.102;2022-09-17T06:39:56;18.42;;;3.95;;
34212;SDS011;20477;51.390;8.102;2022-09-17T06:42:27;13.32;;;3.15;;
34212;SDS011;20477;51.390;8.102;2022-09-17T06:44:54;13.27;;;3.63;;
34212;SDS011;20477;51.390;8.102;2022-09-17T06:47:30;19.23;;;5.85;;
34212;SDS011;20477;51.390;8.102;2022-09-17T06:49:57;20.60;;;3.55;;
34212;SDS011;20477;51.390;8.102;2022-09-17T06:52:27;16.70;;;3.70;;
34212;SDS011;20477;51.390;8.102;2022-09-17T06:54:54;23.50;;;3.40;;
34212;SDS011;20477;51.390;8.102;2022-09-17T06:57:21;18.40;;;3.63;;
34212;SDS011;20477;51.390;8.102;2022-09-17T06:59:48;18.02;;;3.60;;
34212;SDS011;20477;51.390;8.102;2022-09-17T07:02:16;11.13;;;3.10;;
34212;SDS011;20477;51.390;8.102;2022-09-17T07:04:43;19.60;;;3.92;;
34212;SDS011;20477;51.390;8.102;2022-09-17T07:07:10;13.75;;;3.25;;
34212;SDS011;20477;51.390;8.102;2022-09-17T07:09:38;18.63;;;3.75;;
34212;SDS011;20477;51.390;8.102;2022-09-17T07:12:06;13.82;;;3.45;;
34212;SDS011;20477;51.390;8.102;2022-09-17T07:14:33;10.23;;;2.83;;
34212;SDS011;20477;51.390;8.102;2022-09-17T07:17:00;15.95;;;3.40;;
34212;SDS011;20477;51.390;8.102;2022-09-17T07:19:28;24.80;;;2.83;;
34212;SDS011;20477;51.390;8.102;2022-09-17T07:21:55;11.55;;;2.30;;
34212;SDS011;20477;51.390;8.102;2022-09-17T07:24:22;19.67;;;3.13;;
34212;SDS011;20477;51.390;8.102;2022-09-17T07:26:49;20.73;;;3.22;;
34212;SDS011;20477;51.390;8.102;2022-09-17T07:29:17;12.30;;;2.60;;
34212;SDS011;20477;51.390;8.102;2022-09-17T07:31:44;15.82;;;3.80;;
34212;SDS011;20477;51.390;8.102;2022-09-17T07:34:11;17.55;;;2.88;;
34212;SDS011;20477;51.390;8.102;2022-09-17T07:36:39;13.95;;;2.97;;
34212;SDS011;20477;51.390;8.102;2022-09-17T07:39:06;12.80;;;2.33;;
34212;SDS011;20477;51.390;8.102;2022-09-17T07:41:33;14.32;;;2.80;;
34212;SDS011;20477;51.390;8.102;2022-09-17T07:44:00;14.52;;;2.78;;
34212;SDS011;20477;51.390;8.102;2022-09-17T07:46:28;15.85;;;3.10;;
34212;SDS011;20477;51.390;8.102;2022-09-17T07:48:55;19.20;;;3.03;;
34212;SDS011;20477;51.390;8.102;2022-09-17T07:51:23;15.07;;;2.85;;
34212;SDS011;20477;51.390;8.102;2022-09-17T07:53:51;22.83;;;3.08;;
34212;SDS011;20477;51.390;8.102;2022-09-17T07:56:19;14.60;;;2.75;;
34212;SDS011;20477;51.390;8.102;2022-09-17T07:58:47;15.05;;;2.50;;
34212;SDS011;20477;51.390;8.102;2022-09-17T08:01:14;15.27;;;2.42;;
34212;SDS011;20477;51.390;8.102;2022-09-17T08:03:46;14.25;;;3.40;;
34212;SDS011;20477;51.390;8.102;2022-09-17T08:06:14;11.50;;;2.35;;
34212;SDS011;20477;51.390;8.102;2022-09-17T08:08:43;13.30;;;2.85;;
34212;SDS011;20477;51.390;8.102;2022-09-17T08:11:12;15.35;;;2.47;;
34212;SDS011;20477;51.390;8.102;2022-09-17T08:14:06;14.90;;;3.45;;
34212;SDS011;20477;51.390;8.102;2022-09-17T08:19:06;11.15;;;2.45;;
34212;SDS011;20477;51.390;8.102;2022-09-17T08:21:35;17.40;;;3.38;;
34212;SDS011;20477;51.390;8.102;2022-09-17T08:24:03;15.35;;;2.40;;
34212;SDS011;20477;51.390;8.102;2022-09-17T08:26:30;11.65;;;2.83;;
34212;SDS011;20477;51.390;8.102;2022-09-17T08:28:57;16.25;;;2.15;;
34212;SDS011;20477;51.390;8.102;2022-09-17T08:31:25;15.45;;;3.40;;
34212;SDS011;20477;51.390;8.102;2022-09-17T08:33:53;20.77;;;2.92;;
34212;SDS011;20477;51.390;8.102;2022-09-17T08:36:20;15.05;;;3.20;;
34212;SDS011;20477;51.390;8.102;2022-09-17T08:38:52;15.70;;;2.60;;
34212;SDS011;20477;51.390;8.102;2022-09-17T08:44:25;16.85;;;2.90;;
34212;SDS011;20477;51.390;8.102;2022-09-17T08:47:03;17.30;;;3.58;;
34212;SDS011;20477;51.390;8.102;2022-09-17T08:50:01;14.60;;;2.80;;
34212;SDS011;20477;51.390;8.102;2022-09-17T09:00:54;11.43;;;2.70;;
34212;SDS011;20477;51.390;8.102;2022-09-17T09:06:34;11.90;;;1.90;;
34212;SDS011;20477;51.390;8.102;2022-09-17T09:09:05;11.07;;;2.33;;
34212;SDS011;20477;51.390;8.102;2022-09-17T09:11:41;15.45;;;3.08;;
34212;SDS011;20477;51.390;8.102;2022-09-17T09:14:11;12.15;;;2.72;;
34212;SDS011;20477;51.390;8.102;2022-09-17T09:16:46;7.32;;;2.83;;
34212;SDS011;20477;51.390;8.102;2022-09-17T09:19:19;18.27;;;2.40;;
34212;SDS011;20477;51.390;8.102;2022-09-17T09:22:03;15.52;;;2.97;;
34212;SDS011;20477;51.390;8.102;2022-09-17T09:27:28;14.18;;;3.33;;
34212;SDS011;20477;51.390;8.102;2022-09-17T09:30:02;17.25;;;2.50;;
34212;SDS011;20477;51.390;8.102;2022-09-17T09:35:33;15.27;;;4.18;;
34212;SDS011;20477;51.390;8.102;2022-09-17T09:40:42;11.93;;;2.60;;
34212;SDS011;20477;51.390;8.102;2022-09-17T09:43:44;18.77;;;3.33;;
34212;SDS011;20477;51.390;8.102;2022-09-17T09:57:43;17.15;;;2.90;;
34212;SDS011;20477;51.390;8.102;2022-09-17T10:00:22;16.38;;;2.00;;
34212;SDS011;20477;51.390;8.102;2022-09-17T10:03:09;16.70;;;2.65;;
34212;SDS011;20477;51.390;8.102;2022-09-17T10:05:55;14.27;;;2.63;;
34212;SDS011;20477;51.390;8.102;2022-09-17T10:08:30;12.13;;;2.30;;
34212;SDS011;20477;51.390;8.102;2022-09-17T10:11:03;10.85;;;2.53;;
34212;SDS011;20477;51.390;8.102;2022-09-17T10:13:34;12.50;;;2.17;;
34212;SDS011;20477;51.390;8.102;2022-09-17T10:16:21;10.68;;;1.73;;
34212;SDS011;20477;51.390;8.102;2022-09-17T10:21:33;15.15;;;2.33;;
34212;SDS011;20477;51.390;8.102;2022-09-17T10:24:23;13.35;;;2.30;;
34212;SDS011;20477;51.390;8.102;2022-09-17T10:27:01;9.90;;;1.73;;
34212;SDS011;20477;51.390;8.102;2022-09-17T10:29:30;9.60;;;1.75;;
34212;SDS011;20477;51.390;8.102;2022-09-17T10:31:59;10.40;;;1.77;;
34212;SDS011;20477;51.390;8.102;2022-09-17T10:34:27;11.52;;;2.08;;
34212;SDS011;20477;51.390;8.102;2022-09-17T10:36:58;11.68;;;2.25;;
34212;SDS011;20477;51.390;8.102;2022-09-17T10:39:32;13.68;;;2.08;;
34212;SDS011;20477;51.390;8.102;2022-09-17T10:42:04;11.82;;;1.52;;
34212;SDS011;20477;51.390;8.102;2022-09-17T10:44:38;7.85;;;1.48;;
34212;SDS011;20477;51.390;8.102;2022-09-17T10:47:25;5.97;;;1.52;;
34212;SDS011;20477;51.390;8.102;2022-09-17T10:52:32;9.20;;;2.22;;
34212;SDS011;20477;51.390;8.102;2022-09-17T10:58:02;9.63;;;1.55;;
34212;SDS011;20477;51.390;8.102;2022-09-17T11:12:05;4.25;;;0.70;;
34212;SDS011;20477;51.390;8.102;2022-09-17T11:19:58;3.95;;;0.93;;
34212;SDS011;20477;51.390;8.102;2022-09-17T11:22:50;5.85;;;1.30;;
34212;SDS011;20477;51.390;8.102;2022-09-17T11:25:54;4.93;;;1.00;;
34212;SDS011;20477;51.390;8.102;2022-09-17T11:42:38;3.55;;;1.08;;
34212;SDS011;20477;51.390;8.102;2022-09-17T11:45:16;7.57;;;1.65;;
34212;SDS011;20477;51.390;8.102;2022-09-17T11:47:48;6.43;;;2.10;;
34212;SDS011;20477;51.390;8.102;2022-09-17T11:50:30;5.78;;;1.00;;
34212;SDS011;20477;51.390;8.102;2022-09-17T11:53:20;4.50;;;1.10;;
34212;SDS011;20477;51.390;8.102;2022-09-17T11:59:02;6.15;;;1.02;;
34212;SDS011;20477;51.390;8.102;2022-09-17T12:01:38;1.33;;;0.70;;
34212;SDS011;20477;51.390;8.102;2022-09-17T12:04:26;5.60;;;1.05;;
34212;SDS011;20477;51.390;8.102;2022-09-17T12:07:20;5.10;;;1.83;;
34212;SDS011;20477;51.390;8.102;2022-09-17T12:09:54;7.38;;;1.23;;
34212;SDS011;20477;51.390;8.102;2022-09-17T12:12:37;4.93;;;2.10;;
34212;SDS011;20477;51.390;8.102;2022-09-17T12:15:19;2.40;;;0.90;;
34212;SDS011;20477;51.390;8.102;2022-09-17T12:20:57;2.95;;;0.85;;
34212;SDS011;20477;51.390;8.102;2022-09-17T12:23:30;4.60;;;0.90;;
34212;SDS011;20477;51.390;8.102;2022-09-17T12:26:32;5.70;;;1.10;;
34212;SDS011;20477;51.390;8.102;2022-09-17T12:29:34;3.10;;;0.98;;
34212;SDS011;20477;51.390;8.102;2022-09-17T12:41:05;5.03;;;1.60;;
34212;SDS011;20477;51.390;8.102;2022-09-17T12:49:04;9.90;;;1.55;;
34212;SDS011;20477;51.390;8.102;2022-09-17T12:51:54;3.72;;;0.82;;
34212;SDS011;20477;51.390;8.102;2022-09-17T13:02:41;1.80;;;0.63;;
34212;SDS011;20477;51.390;8.102;2022-09-17T13:08:23;3.65;;;1.02;;
34212;SDS011;20477;51.390;8.102;2022-09-17T13:14:50;5.32;;;1.13;;
34212;SDS011;20477;51.390;8.102;2022-09-17T13:22:45;1.55;;;0.73;;
34212;SDS011;20477;51.390;8.102;2022-09-17T13:25:15;4.00;;;0.53;;
34212;SDS011;20477;51.390;8.102;2022-09-17T13:27:45;4.78;;;0.90;;
34212;SDS011;20477;51.390;8.102;2022-09-17T13:30:14;11.68;;;1.23;;
34212;SDS011;20477;51.390;8.102;2022-09-17T13:32:46;2.67;;;0.80;;
34212;SDS011;20477;51.390;8.102;2022-09-17T13:35:59;4.05;;;1.73;;
34212;SDS011;20477;51.390;8.102;2022-09-17T13:38:01;4.45;;;0.80;;
34212;SDS011;20477;51.390;8.102;2022-09-17T13:40:33;2.70;;;0.90;;
34212;SDS011;20477;51.390;8.102;2022-09-17T13:48:28;5.93;;;1.25;;
34212;SDS011;20477;51.390;8.102;2022-09-17T13:50:56;2.63;;;0.90;;
34212;SDS011;20477;51.390;8.102;2022-09-17T13:53:24;4.47;;;1.25;;
34212;SDS011;20477;51.390;8.102;2022-09-17T13:55:53;4.75;;;1.30;;
34212;SDS011;20477;51.390;8.102;2022-09-17T13:58:28;4.50;;;1.20;;
34212;SDS011;20477;51.390;8.102;2022-09-17T14:01:06;6.50;;;1.65;;
34212;SDS011;20477;51.390;8.102;2022-09-17T14:21:41;5.22;;;0.93;;
34212;SDS011;20477;51.390;8.102;2022-09-17T14:24:18;4.75;;;1.13;;
34212;SDS011;20477;51.390;8.102;2022-09-17T14:27:07;2.25;;;0.90;;
34212;SDS011;20477;51.390;8.102;2022-09-17T14:32:41;8.65;;;1.27;;
34212;SDS011;20477;51.390;8.102;2022-09-17T14:40:18;9.93;;;2.13;;
34212;SDS011;20477;51.390;8.102;2022-09-17T14:42:47;4.75;;;1.33;;
34212;SDS011;20477;51.390;8.102;2022-09-17T14:53:48;6.85;;;1.30;;
34212;SDS011;20477;51.390;8.102;2022-09-17T14:56:38;4.95;;;1.08;;
34212;SDS011;20477;51.390;8.102;2022-09-17T14:59:21;7.20;;;1.42;;
34212;SDS011;20477;51.390;8.102;2022-09-17T15:01:55;7.38;;;1.10;;
34212;SDS011;20477;51.390;8.102;2022-09-17T15:04:24;4.97;;;1.38;;
34212;SDS011;20477;51.390;8.102;2022-09-17T15:07:04;7.53;;;1.65;;
34212;SDS011;20477;51.390;8.102;2022-09-17T15:09:32;7.78;;;1.80;;
34212;SDS011;20477;51.390;8.102;2022-09-17T15:12:00;6.72;;;1.30;;
34212;SDS011;20477;51.390;8.102;2022-09-17T15:14:28;8.65;;;1.95;;
34212;SDS011;20477;51.390;8.102;2022-09-17T15:16:58;6.82;;;1.60;;
34212;SDS011;20477;51.390;8.102;2022-09-17T15:19:36;9.40;;;1.77;;
34212;SDS011;20477;51.390;8.102;2022-09-17T15:22:08;5.10;;;1.35;;
34212;SDS011;20477;51.390;8.102;2022-09-17T15:24:46;12.90;;;2.15;;
34212;SDS011;20477;51.390;8.102;2022-09-17T15:27:21;12.02;;;1.77;;
34212;SDS011;20477;51.390;8.102;2022-09-17T15:29:52;4.97;;;1.48;;
34212;SDS011;20477;51.390;8.102;2022-09-17T15:32:31;8.13;;;1.95;;
34212;SDS011;20477;51.390;8.102;2022-09-17T15:37:46;2.58;;;1.20;;
34212;SDS011;20477;51.390;8.102;2022-09-17T15:40:37;3.60;;;1.20;;
34212;SDS011;20477;51.390;8.102;2022-09-17T15:46:20;5.80;;;1.58;;
34212;SDS011;20477;51.390;8.102;2022-09-17T15:48:50;3.13;;;1.50;;
34212;SDS011;20477;51.390;8.102;2022-09-17T15:51:34;3.22;;;1.30;;
34212;SDS011;20477;51.390;8.102;2022-09-17T15:54:04;3.25;;;0.93;;
34212;SDS011;20477;51.390;8.102;2022-09-17T15:56:36;7.85;;;1.25;;
34212;SDS011;20477;51.390;8.102;2022-09-17T15:59:15;4.72;;;1.60;;
34212;SDS011;20477;51.390;8.102;2022-09-17T16:01:53;3.63;;;1.20;;
34212;SDS011;20477;51.390;8.102;2022-09-17T16:04:23;6.82;;;0.80;;
34212;SDS011;20477;51.390;8.102;2022-09-17T16:06:53;2.95;;;1.10;;
34212;SDS011;20477;51.390;8.102;2022-09-17T16:09:36;2.72;;;1.35;;
34212;SDS011;20477;51.390;8.102;2022-09-17T16:12:04;13.68;;;1.65;;
34212;SDS011;20477;51.390;8.102;2022-09-17T16:14:31;13.57;;;1.75;;
34212;SDS011;20477;51.390;8.102;2022-09-17T16:16:58;8.07;;;1.10;;
34212;SDS011;20477;51.390;8.102;2022-09-17T16:19:25;5.90;;;1.00;;
34212;SDS011;20477;51.390;8.102;2022-09-17T16:21:52;5.63;;;1.38;;
34212;SDS011;20477;51.390;8.102;2022-09-17T16:24:20;3.50;;;1.00;;
34212;SDS011;20477;51.390;8.102;2022-09-17T16:26:48;4.80;;;1.13;;
34212;SDS011;20477;51.390;8.102;2022-09-17T16:29:15;8.20;;;1.35;;
34212;SDS011;20477;51.390;8.102;2022-09-17T16:31:43;6.18;;;1.25;;
34212;SDS011;20477;51.390;8.102;2022-09-17T16:34:10;7.70;;;1.10;;
34212;SDS011;20477;51.390;8.102;2022-09-17T16:36:39;11.45;;;1.75;;
34212;SDS011;20477;51.390;8.102;2022-09-17T16:39:07;8.18;;;1.90;;
34212;SDS011;20477;51.390;8.102;2022-09-17T16:41:34;7.05;;;1.52;;
34212;SDS011;20477;51.390;8.102;2022-09-17T16:44:01;6.78;;;1.60;;
34212;SDS011;20477;51.390;8.102;2022-09-17T16:46:28;8.90;;;1.45;;
34212;SDS011;20477;51.390;8.102;2022-09-17T16:48:55;6.85;;;1.42;;
34212;SDS011;20477;51.390;8.102;2022-09-17T16:51:22;4.75;;;1.30;;
34212;SDS011;20477;51.390;8.102;2022-09-17T16:53:49;6.75;;;2.20;;
34212;SDS011;20477;51.390;8.102;2022-09-17T16:56:16;9.10;;;1.77;;
34212;SDS011;20477;51.390;8.102;2022-09-17T16:58:44;5.35;;;1.42;;
34212;SDS011;20477;51.390;8.102;2022-09-17T17:01:12;3.83;;;1.38;;
34212;SDS011;20477;51.390;8.102;2022-09-17T17:03:41;8.32;;;1.60;;
34212;SDS011;20477;51.390;8.102;2022-09-17T17:06:14;13.07;;;2.22;;
34212;SDS011;20477;51.390;8.102;2022-09-17T17:08:41;8.20;;;2.55;;
34212;SDS011;20477;51.390;8.102;2022-09-17T17:11:08;8.07;;;2.33;;
34212;SDS011;20477;51.390;8.102;2022-09-17T17:13:36;5.60;;;1.65;;
34212;SDS011;20477;51.390;8.102;2022-09-17T17:16:10;10.57;;;2.03;;
34212;SDS011;20477;51.390;8.102;2022-09-17T17:18:42;8.50;;;2.00;;
34212;SDS011;20477;51.390;8.102;2022-09-17T17:21:09;7.00;;;1.60;;
34212;SDS011;20477;51.390;8.102;2022-09-17T17:23:38;8.00;;;2.08;;
34212;SDS011;20477;51.390;8.102;2022-09-17T17:26:08;8.93;;;1.98;;
34212;SDS011;20477;51.390;8.102;2022-09-17T17:28:36;6.72;;;1.92;;
34212;SDS011;20477;51.390;8.102;2022-09-17T17:31:03;12.02;;;2.05;;
34212;SDS011;20477;51.390;8.102;2022-09-17T17:33:31;5.15;;;1.80;;
34212;SDS011;20477;51.390;8.102;2022-09-17T17:35:59;8.63;;;2.15;;
34212;SDS011;20477;51.390;8.102;2022-09-17T17:38:33;11.98;;;1.80;;
34212;SDS011;20477;51.390;8.102;2022-09-17T17:41:04;7.40;;;1.95;;
34212;SDS011;20477;51.390;8.102;2022-09-17T17:43:43;11.13;;;1.42;;
34212;SDS011;20477;51.390;8.102;2022-09-17T17:46:10;9.95;;;1.75;;
34212;SDS011;20477;51.390;8.102;2022-09-17T17:48:38;10.23;;;2.17;;
34212;SDS011;20477;51.390;8.102;2022-09-17T17:51:05;11.02;;;1.90;;
34212;SDS011;20477;51.390;8.102;2022-09-17T17:53:33;10.50;;;2.22;;
34212;SDS011;20477;51.390;8.102;2022-09-17T17:56:03;8.50;;;2.45;;
34212;SDS011;20477;51.390;8.102;2022-09-17T17:58:32;13.43;;;2.60;;
34212;SDS011;20477;51.390;8.102;2022-09-17T18:00:59;5.20;;;1.60;;
34212;SDS011;20477;51.390;8.102;2022-09-17T18:03:34;8.48;;;1.88;;
34212;SDS011;20477;51.390;8.102;2022-09-17T18:06:03;4.05;;;1.50;;
34212;SDS011;20477;51.390;8.102;2022-09-17T18:08:31;15.88;;;1.75;;
34212;SDS011;20477;51.390;8.102;2022-09-17T18:11:00;5.70;;;1.33;;
34212;SDS011;20477;51.390;8.102;2022-09-17T18:13:31;8.77;;;2.10;;
34212;SDS011;20477;51.390;8.102;2022-09-17T18:16:01;6.10;;;1.58;;
34212;SDS011;20477;51.390;8.102;2022-09-17T18:18:35;15.80;;;2.60;;
34212;SDS011;20477;51.390;8.102;2022-09-17T18:21:10;7.90;;;1.95;;
34212;SDS011;20477;51.390;8.102;2022-09-17T18:23:42;8.40;;;1.63;;
34212;SDS011;20477;51.390;8.102;2022-09-17T18:26:10;12.05;;;1.88;;
34212;SDS011;20477;51.390;8.102;2022-09-17T18:28:38;12.35;;;2.33;;
34212;SDS011;20477;51.390;8.102;2022-09-17T18:31:07;8.80;;;2.88;;
34212;SDS011;20477;51.390;8.102;2022-09-17T18:33:44;10.35;;;3.03;;
34212;SDS011;20477;51.390;8.102;2022-09-17T18:36:11;15.80;;;2.38;;